Ocotillo, California
Current Conditions -  °F | °C
As of 11:56 AM on Saturday 25 Oct 2014 (Local Time) from KNJK Reporting Station
Scattered Clouds Scattered Clouds  
Wind Chill: 92°   Ceiling: Unl
Heat Index: 92°   Visibility: 10mi
Dew Point: 46°   Wind: 3mph
Humidity: 20%   Direction: NA
Pressure: 29.95"   Gusts: NA
Location:  32.74°N, 115.99°W
Report Text: KNJK 251856Z VRB03KT 10SM SCT040 33/08 A2995 RMK AO2 SLP156 T03330078
Loading
Personal Weather Stations






























Interactive Weather Map
Tropical Storm Tracking
New forecast layout! Learn more

10-Day Weather Forecast

Advertisements
Track Severe Weather on mobile